Plaisance, Maurice

14:08 MUT le 29 mai 2015 (GMT +0400)
Pointe d'Esny Mauritius | | Change Station
CLOSE
Current Station
Stations météorologiques personnelles
Location: Grand Port, MAURITIUS
Altitude: 10 ft
Stations météo à proximité

Alt. 10 ft 20.44 °S, 57.73 °E | Updated 27 seconds ago

Scattered Clouds
Nuages épars
77.0 ° F
Paraît 79 ° F
N
16.0
Vent Variable Vent de ESE
Gusts 20.0 mph

Aujourd'hui
Haut(e) -- | Bas -- ° F
--% Risque de précip.
Hier
Haut(e) -- | Bas -- ° F
Precip. -- pouce
6:36 AM 5:36 PM
Lune gibbeuse croissante, 82% visible
Pression 30.04 pouce
Visibilité 6.2 Miles terrestres
Nuages Nuages épars 1800 ft
indice de chaleur 79 ° F
Point de rosée 66 ° F
Humidité 68%
Précipitations 0.00 pouce
Profondeur de la couche neigeuse Non disponible.
UV 5 sur 12
Pollen Non disponible.
Qualité de l'air Non disponible.
Flu Activity Non disponible.
METAR FIMP 291000Z 13013KT 9999 SCT018 26/18 Q1017

More Conditions Fewer Conditions

Pression 30.04 pouce
Visibilité 6.2 Miles terrestres
Nuages Nuages épars 1800 ft
indice de chaleur 79 ° F
Point de rosée 66 ° F
Humidité 68%
Précipitations 0.00 pouce
Profondeur de la couche neigeuse Non disponible.
UV 5 sur 12
Pollen Non disponible.
Qualité de l'air Non disponible.
Flu Activity Non disponible.
METAR FIMP 291000Z 13013KT 9999 SCT018 26/18 Q1017

More Conditions Fewer Conditions

10-Day Weather Forecast

Almanac

Astronomie

May. 29, 2015 Lever Coucher
Temps réel
Crépuscule civil
Crépuscule nautique
Crépuscule astronomique
Lune
Durée de lumière visible
Longueur du jour
Tomorrow will be .
, % of the Moon is Illuminated

Extrêmes aujourd'hui

Country Highs Country Lows

Community

WunderPhotos

Upload Photos

1,825,226 Photos téléchargées !

WunderBlogs® & News

Nearby

Qualité de l'air

  Qualité de l'air Indice de la qualité de l'air Polluant
Not available.

Épaisseur de neige

Station Depth Altitude

Activité sismique

Ville Distance Mag. Time & Date
Minimum magnitude displayed is 2.5.

Températures des eaux côtières

Lieu Température

Stations

Stations météo à proximité

Emplacement de la station Température Refroidissement éolien Point de rosée Humidité Vent Precip. Alt. Mise à jour Type